Anchor, Illinois
Current Conditions -  °F | °C
As of 11:23 AM on Sunday 21 Dec 2014 (Local Time) from KBMI Reporting Station
Haze Haze  
Wind Chill: 29°   Ceiling: 2900
Heat Index: 37°   Visibility: 6mi
Dew Point: 32°   Wind: 15mph
Humidity: 81%   Direction: 180°S
Pressure: 30.17"   Gusts: NA
Location:  40.57°N, 88.54°W
Report Text: KBMI 211723Z 18013KT 6SM HZ OVC029 03/00 A3017 RMK AO2
Loading
Personal Weather Stations






























Interactive Weather Map New forecast layout! Learn more

10-Day Weather Forecast

Advertisements
Track Severe Weather on mobile